Terminal Aerodrome Forecast
Issued by NWS Sioux Falls, SD

Home | Current Version | Previous Version | Text Only | Print | Product List | Glossary On
Versions: 1 2 3 4 5 6 7 8 9 10 11 12
453
FTUS43 KFSD 292320
TAFHON
TAF
KHON 292320Z 3000/3024 31012KT P6SM BKN100
     FM300100 31007KT P6SM SCT100
     FM300400 29004KT P6SM SCT060
     FM301300 32010KT P6SM SCT060
     FM301600 32015G23KT P6SM SCT060=

USA.gov is the U.S. government's official web portal to all federal, state and local government web resources and services.